Time;durP1;ratioP1;P1;durP2;ratioP2;P2;SDS_P1;SDS_P2;PMS_P1;PMS_P2;Temp;Humidity;BMP_temperature;BMP_pressure;BME280_temperature;BME280_humidity;BME280_pressure;Samples;Min_cycle;Max_cycle;Signal;HPM_P1;HPM_P2
2022/02/15 00:03:52;;;;;;;10.55;2.95;;;;;;;4.14;63.74;99109.50;10318165;28;20406;-73
2022/02/15 00:08:54;;;;;;;12.05;3.75;;;;;;;4.15;64.10;99103.41;10308393;28;20046;-73
2022/02/15 00:13:55;;;;;;;7.75;3.00;;;;;;;4.11;63.93;99096.69;10314153;28;20168;-74
2022/02/15 00:18:57;;;;;;;15.85;3.88;;;;;;;3.94;63.63;99113.91;10304612;28;20414;-73
2022/02/15 00:23:59;;;;;;;10.68;3.67;;;;;;;3.71;63.84;99109.75;10306382;28;20120;-73
2022/02/15 00:29:01;;;;;;;11.48;3.40;;;;;;;3.57;64.33;99114.72;10304084;28;20060;-73
2022/02/15 00:34:03;;;;;;;10.23;3.65;;;;;;;3.44;64.19;99111.81;10308651;28;20044;-73
2022/02/15 00:39:05;;;;;;;10.57;3.40;;;;;;;3.34;64.40;99120.03;10307609;28;21084;-73
2022/02/15 00:44:07;;;;;;;8.63;3.00;;;;;;;3.25;64.76;99130.78;10303888;28;20048;-73
2022/02/15 00:49:08;;;;;;;11.32;2.75;;;;;;;3.44;64.79;99132.50;10312740;28;20109;-74
2022/02/15 00:54:10;;;;;;;10.60;3.08;;;;;;;3.66;64.82;99129.81;10305285;28;20057;-73
2022/02/15 00:59:12;;;;;;;10.25;3.10;;;;;;;3.91;64.46;99134.75;10306568;28;20458;-73
2022/02/15 01:04:14;;;;;;;12.75;3.30;;;;;;;3.99;65.15;99125.72;10307679;28;20599;-74
2022/02/15 01:09:15;;;;;;;10.88;2.78;;;;;;;4.28;65.23;99140.75;10306607;28;20057;-74
2022/02/15 01:14:18;;;;;;;8.70;2.50;;;;;;;4.51;64.80;99135.34;10314898;28;20080;-74
2022/02/15 01:19:19;;;;;;;8.50;2.63;;;;;;;4.64;64.88;99133.81;10307917;28;20490;-73
2022/02/15 01:24:21;;;;;;;10.23;3.10;;;;;;;4.67;64.92;99136.28;10305647;28;20384;-73
2022/02/15 01:29:23;;;;;;;8.05;2.83;;;;;;;4.86;64.71;99140.56;10307117;28;20418;-73
2022/02/15 01:34:25;;;;;;;8.63;2.70;;;;;;;4.98;64.58;99138.22;10305902;28;20067;-73
2022/02/15 01:39:27;;;;;;;6.88;2.47;;;;;;;5.02;64.44;99131.13;10310632;28;20521;-73
2022/02/15 01:44:30;;;;;;;11.52;2.72;;;;;;;5.08;64.19;99115.25;10309770;28;20057;-73
2022/02/15 01:49:33;;;;;;;9.95;2.65;;;;;;;5.06;64.11;99112.75;10310396;28;20193;-72
2022/02/15 01:54:35;;;;;;;8.48;2.40;;;;;;;5.14;63.61;99113.19;10305514;28;20199;-74
2022/02/15 01:59:36;;;;;;;8.90;2.65;;;;;;;5.10;63.42;99108.25;10316606;28;20062;-72
2022/02/15 02:09:58;;;;;;;8.48;2.70;;;;;;;5.04;63.05;99108.56;10305355;28;20133;-73
2022/02/15 02:15:03;;;;;;;10.98;3.00;;;;;;;4.96;63.03;99108.94;10316675;28;20056;-73
2022/02/15 02:20:06;;;;;;;8.48;2.70;;;;;;;4.97;63.55;99114.94;10319502;28;20417;-74
2022/02/15 02:25:09;;;;;;;8.10;2.88;;;;;;;5.03;63.55;99118.06;10304379;28;20521;-73
2022/02/15 02:30:11;;;;;;;9.07;2.78;;;;;;;5.15;63.46;99124.38;10303619;28;20060;-73
2022/02/15 02:35:13;;;;;;;7.93;2.80;;;;;;;5.17;63.27;99122.56;10309774;28;20046;-72
2022/02/15 02:40:16;;;;;;;11.15;2.83;;;;;;;5.01;64.01;99126.84;10313542;28;20054;-73
2022/02/15 02:45:20;;;;;;;11.85;2.75;;;;;;;5.00;64.37;99136.38;10313866;28;20047;-74
2022/02/15 02:50:24;;;;;;;9.93;2.70;;;;;;;5.14;64.17;99133.09;10324607;28;20711;-72
2022/02/15 02:55:26;;;;;;;11.38;2.92;;;;;;;5.15;64.29;99132.16;10312191;28;20180;-72
2022/02/15 03:00:28;;;;;;;10.15;3.30;;;;;;;5.28;63.88;99141.00;10312802;28;20134;-72
2022/02/15 03:05:30;;;;;;;9.90;2.85;;;;;;;5.38;63.92;99137.88;10319959;28;20046;-72
2022/02/15 03:10:32;;;;;;;7.28;2.83;;;;;;;5.53;63.59;99137.06;10320069;28;20559;-73
2022/02/15 03:15:33;;;;;;;8.00;2.90;;;;;;;5.55;63.09;99137.00;10319052;28;20149;-74
2022/02/15 03:20:35;;;;;;;8.57;2.63;;;;;;;5.50;62.82;99142.44;10318202;28;20054;-74
2022/02/15 03:25:37;;;;;;;7.15;3.10;;;;;;;5.51;63.25;99149.28;10346082;28;20133;-73
2022/02/15 03:30:38;;;;;;;8.25;3.05;;;;;;;5.57;63.35;99157.66;10358483;28;20053;-74
2022/02/15 03:35:40;;;;;;;11.65;3.13;;;;;;;5.55;63.07;99160.34;10318606;28;20054;-74
2022/02/15 03:46:02;;;;;;;11.57;3.60;;;;;;;5.53;63.21;99172.56;10316788;28;20076;-74
2022/02/15 03:51:04;;;;;;;11.93;3.40;;;;;;;5.56;63.54;99180.16;10356133;28;20048;-73
2022/02/15 03:56:06;;;;;;;12.32;3.30;;;;;;;5.68;63.69;99189.91;10357854;28;20045;-74
2022/02/15 04:01:09;;;;;;;9.65;3.40;;;;;;;5.72;63.80;99185.38;10332935;28;20060;-73
2022/02/15 04:06:11;;;;;;;14.95;5.00;;;;;;;5.51;63.95;99187.34;10320144;28;20096;-74
2022/02/15 04:11:13;;;;;;;14.45;6.05;;;;;;;5.44;64.31;99196.34;10324060;28;20093;-74
2022/02/15 04:16:15;;;;;;;10.48;3.90;;;;;;;5.39;64.96;99198.34;10312548;28;20212;-73
2022/02/15 04:21:23;;;;;;;17.15;4.95;;;;;;;5.55;65.11;99196.66;10349717;28;20136;-75
2022/02/15 04:26:25;;;;;;;14.63;4.80;;;;;;;5.63;65.19;99204.03;10309451;28;20065;-73
2022/02/15 04:31:27;;;;;;;9.95;4.60;;;;;;;5.72;65.12;99211.34;10309132;28;20054;-73
2022/02/15 04:36:29;;;;;;;12.27;4.50;;;;;;;5.77;65.30;99218.00;10315246;28;20221;-74
2022/02/15 04:41:30;;;;;;;12.02;5.07;;;;;;;5.81;65.26;99219.50;10325885;28;20473;-74
2022/02/15 04:46:33;;;;;;;16.27;4.82;;;;;;;5.81;65.50;99226.44;10344075;28;20046;-73
2022/02/15 04:51:35;;;;;;;14.30;5.60;;;;;;;5.76;65.82;99231.84;10348268;28;20357;-73
2022/02/15 04:56:36;;;;;;;14.63;5.63;;;;;;;5.76;65.85;99236.22;10307368;28;20128;-72
2022/02/15 05:01:41;;;;;;;12.23;5.22;;;;;;;5.73;66.11;99250.19;10337836;28;20097;-73
2022/02/15 05:06:43;;;;;;;9.43;5.20;;;;;;;5.75;66.08;99250.09;10335906;28;20426;-73
2022/02/15 05:11:44;;;;;;;15.00;5.90;;;;;;;5.66;66.40;99251.41;10308726;28;20054;-74
2022/02/15 05:16:46;;;;;;;12.30;5.50;;;;;;;5.50;66.25;99255.69;10322596;28;20129;-72
2022/02/15 05:21:48;;;;;;;11.05;5.32;;;;;;;5.33;66.64;99271.25;10311452;28;20494;-73
2022/02/15 05:26:49;;;;;;;13.77;6.53;;;;;;;5.34;67.07;99275.50;10313606;28;20056;-72
2022/02/15 05:31:51;;;;;;;14.10;6.78;;;;;;;5.38;67.56;99283.06;10329066;28;20054;-72
2022/02/15 05:36:54;;;;;;;17.50;7.30;;;;;;;5.43;67.88;99285.44;10306644;28;20054;-72
2022/02/15 05:41:56;;;;;;;12.07;7.00;;;;;;;5.38;68.14;99292.59;10306682;28;20050;-72
2022/02/15 05:46:58;;;;;;;13.93;8.07;;;;;;;5.37;68.52;99291.75;10306122;28;20089;-72
2022/02/15 05:52:00;;;;;;;18.33;11.93;;;;;;;5.34;68.66;99296.25;10314807;28;20058;-73
2022/02/15 05:57:02;;;;;;;15.05;8.50;;;;;;;5.35;68.67;99303.13;10323427;28;20129;-72
2022/02/15 06:02:09;;;;;;;15.15;7.82;;;;;;;5.28;69.18;99302.59;10314347;28;20491;-72
2022/02/15 06:07:10;;;;;;;15.82;8.27;;;;;;;5.30;69.44;99307.69;10326663;28;20140;-72
2022/02/15 06:12:12;;;;;;;15.00;8.18;;;;;;;5.29;69.57;99317.22;10305494;28;20073;-72
2022/02/15 06:17:14;;;;;;;12.40;7.18;;;;;;;5.33;69.49;99316.16;10305981;28;20137;-73
2022/02/15 06:22:16;;;;;;;12.25;7.35;;;;;;;5.38;69.47;99319.38;10342710;28;20183;-73
2022/02/15 06:27:18;;;;;;;13.02;7.93;;;;;;;5.37;69.77;99322.88;10304960;28;20414;-72
2022/02/15 06:32:19;;;;;;;13.05;7.53;;;;;;;5.39;69.57;99343.56;10342678;28;20582;-72
2022/02/15 06:37:22;;;;;;;12.90;7.35;;;;;;;5.32;69.89;99350.78;10323522;28;20304;-72
2022/02/15 06:42:24;;;;;;;13.73;7.55;;;;;;;5.32;69.95;99355.13;10336436;28;20698;-73
2022/02/15 06:47:26;;;;;;;16.70;8.10;;;;;;;5.34;70.02;99371.44;10332154;28;20153;-73
2022/02/15 06:52:28;;;;;;;16.05;8.77;;;;;;;5.36;70.06;99382.59;10304244;28;20060;-73
2022/02/15 06:57:49;;;;;;;9.77;6.95;;;;;;;5.32;70.34;99397.44;10344682;28;20053;-72
2022/02/15 07:02:51;;;;;;;6.25;2.78;;;;;;;5.27;69.49;99403.75;10306256;28;20510;-73
2022/02/15 07:07:53;;;;;;;5.82;3.45;;;;;;;5.45;68.98;99401.13;10313292;28;20146;-73
2022/02/15 07:12:55;;;;;;;8.55;4.03;;;;;;;5.59;68.75;99410.03;10325628;28;20050;-75
2022/02/15 07:17:57;;;;;;;7.47;4.07;;;;;;;5.66;68.36;99424.38;10310334;28;20395;-73
2022/02/15 07:22:59;;;;;;;5.25;2.92;;;;;;;5.57;68.26;99424.81;10309418;28;20528;-72
2022/02/15 07:28:02;;;;;;;12.23;5.35;;;;;;;5.44;68.23;99438.38;10350120;28;20046;-72
2022/02/15 07:33:03;;;;;;;5.57;2.80;;;;;;;5.38;68.07;99449.03;10337548;28;20410;-72
2022/02/15 07:38:05;;;;;;;3.83;1.92;;;;;;;5.31;68.04;99457.97;10320633;28;20137;-72
2022/02/15 07:43:07;;;;;;;6.47;2.30;;;;;;;5.35;68.08;99459.53;10320793;28;20064;-72
2022/02/15 07:48:09;;;;;;;6.18;2.05;;;;;;;5.44;67.75;99466.88;10312065;28;20085;-73
2022/02/15 07:53:10;;;;;;;5.18;2.50;;;;;;;5.60;67.38;99464.41;10333983;28;20422;-72
2022/02/15 07:58:12;;;;;;;7.75;2.72;;;;;;;5.68;67.34;99469.22;10337764;28;20054;-72
2022/02/15 08:03:14;;;;;;;5.38;2.58;;;;;;;5.66;67.49;99471.91;10310193;28;20057;-74
2022/02/15 08:08:17;;;;;;;9.57;4.22;;;;;;;5.63;67.65;99474.66;10310347;28;20395;-72
2022/02/15 08:13:21;;;;;;;9.40;4.20;;;;;;;5.63;67.75;99481.59;10340680;28;20159;-73
2022/02/15 08:18:23;;;;;;;11.30;3.70;;;;;;;5.59;67.95;99487.84;10308257;28;20054;-72
2022/02/15 08:23:24;;;;;;;9.15;3.72;;;;;;;5.58;68.18;99484.41;10310059;28;20053;-73
2022/02/15 08:28:26;;;;;;;4.88;3.05;;;;;;;5.50;68.42;99494.28;10349416;28;20139;-72
2022/02/15 08:33:30;;;;;;;5.57;3.30;;;;;;;5.44;69.23;99499.75;10339859;28;20134;-72
2022/02/15 08:38:33;;;;;;;7.78;3.60;;;;;;;5.77;68.71;99503.38;10313778;28;20152;-72
2022/02/15 08:43:34;;;;;;;6.85;3.22;;;;;;;6.04;67.93;99512.44;10339505;28;20126;-72
2022/02/15 08:48:36;;;;;;;6.95;3.65;;;;;;;6.35;67.66;99511.84;10317464;28;20426;-73
2022/02/15 08:53:38;;;;;;;6.03;3.47;;;;;;;6.41;67.36;99521.09;10320202;28;20058;-72
2022/02/15 08:58:40;;;;;;;5.40;3.17;;;;;;;6.55;66.79;99522.06;10306467;28;20480;-72
2022/02/15 09:03:42;;;;;;;7.50;3.50;;;;;;;6.60;66.50;99527.91;10327220;28;20054;-72
2022/02/15 09:08:43;;;;;;;4.43;3.15;;;;;;;7.02;65.72;99520.50;10334297;28;20956;-72
2022/02/15 09:13:45;;;;;;;6.82;3.30;;;;;;;7.36;64.74;99535.22;10319709;28;20132;-71
2022/02/15 09:18:47;;;;;;;6.30;3.40;;;;;;;7.11;64.80;99538.25;10332456;28;20050;-72
2022/02/15 09:23:48;;;;;;;6.65;3.50;;;;;;;7.36;64.24;99539.56;10334097;28;20061;-72
2022/02/15 09:28:53;;;;;;;5.60;3.20;;;;;;;7.50;64.12;99550.94;10332207;28;20139;-73
2022/02/15 09:33:55;;;;;;;4.95;2.88;;;;;;;7.47;64.05;99553.66;10306847;28;20056;-72
2022/02/15 09:38:58;;;;;;;5.30;3.10;;;;;;;7.58;63.21;99553.09;10304343;28;20541;-74
2022/02/15 09:44:04;;;;;;;5.22;3.05;;;;;;;7.66;62.83;99556.13;10304901;28;20077;-72
2022/02/15 09:49:48;;;;;;;5.93;3.60;;;;;;;7.57;62.54;99559.25;10346258;28;20139;-72
2022/02/15 09:54:28;;;;;;;5.10;3.28;;;;;;;7.59;62.00;99567.81;10313477;28;20049;-72
2022/02/15 09:59:30;;;;;;;6.13;3.25;;;;;;;7.58;61.13;99569.56;10305450;28;20049;-72
2022/02/15 10:04:33;;;;;;;8.40;5.20;;;;;;;7.77;60.72;99562.44;10331782;28;20051;-73
2022/02/15 10:09:35;;;;;;;6.32;3.30;;;;;;;7.47;60.40;99571.06;10314782;28;20120;-72
2022/02/15 10:14:39;;;;;;;5.85;3.22;;;;;;;7.57;59.96;99583.50;10313061;28;20053;-73
2022/02/15 10:19:45;;;;;;;6.03;3.10;;;;;;;7.84;59.26;99584.63;10321856;28;20058;-73
2022/02/15 10:24:55;;;;;;;4.70;2.58;;;;;;;8.04;57.75;99586.13;10325262;28;20057;-72
2022/02/15 10:29:58;;;;;;;4.00;2.40;;;;;;;8.08;58.64;99592.84;10337813;28;20141;-73
2022/02/15 10:35:00;;;;;;;4.95;2.65;;;;;;;8.21;58.25;99600.88;10329503;28;20347;-73
2022/02/15 10:40:06;;;;;;;5.57;2.53;;;;;;;8.20;57.07;99600.03;10324802;28;20085;-72
2022/02/15 10:45:10;;;;;;;5.05;2.30;;;;;;;8.28;57.13;99599.63;10322226;28;20054;-74
2022/02/15 10:50:13;;;;;;;3.13;2.10;;;;;;;8.56;55.66;99602.34;10342534;28;20125;-72
2022/02/15 10:55:15;;;;;;;3.80;2.20;;;;;;;8.38;54.28;99613.81;10321508;28;20461;-74
2022/02/15 11:00:17;;;;;;;5.32;2.28;;;;;;;8.17;54.73;99607.19;10344737;28;20365;-74
2022/02/15 11:05:20;;;;;;;4.70;2.10;;;;;;;8.54;54.69;99610.28;10341579;28;20321;-74
2022/02/15 11:10:29;;;;;;;4.40;2.00;;;;;;;8.69;52.99;99609.38;10321218;28;20514;-74
2022/02/15 11:15:34;;;;;;;4.22;2.22;;;;;;;8.68;53.76;99612.94;10328407;28;20054;-73
2022/02/15 11:20:51;;;;;;;3.58;1.88;;;;;;;8.39;53.49;99628.50;10338322;28;20399;-75
2022/02/15 11:26:07;;;;;;;2.60;1.48;;;;;;;8.20;52.23;99622.66;10312795;28;20336;-73
2022/02/15 11:31:08;;;;;;;4.78;1.60;;;;;;;8.31;52.99;99628.94;10322091;28;20069;-72
2022/02/15 11:36:13;;;;;;;3.17;1.50;;;;;;;8.41;52.20;99631.88;10313897;28;20050;-73
2022/02/15 11:41:15;;;;;;;5.45;1.85;;;;;;;8.70;52.41;99625.88;10310355;28;20117;-66
2022/02/15 11:46:29;;;;;;;5.93;1.80;;;;;;;9.19;48.99;99632.56;10316923;28;20080;-66
2022/02/15 11:51:34;;;;;;;5.93;1.77;;;;;;;8.94;51.16;99624.47;10343322;28;20114;-66
2022/02/15 11:56:36;;;;;;;3.63;1.65;;;;;;;8.84;51.50;99618.94;10332292;28;20081;-66
2022/02/15 12:01:38;;;;;;;3.92;1.85;;;;;;;8.50;52.10;99623.56;10308780;28;20060;-66
2022/02/15 12:06:42;;;;;;;4.13;1.52;;;;;;;8.50;52.39;99616.59;10337377;28;20053;-66
2022/02/15 12:11:46;;;;;;;3.55;1.65;;;;;;;8.60;52.22;99611.69;10335717;28;20302;-67
2022/02/15 12:16:49;;;;;;;2.65;1.48;;;;;;;8.89;52.00;99602.19;10350657;28;20050;-66
2022/02/15 12:21:55;;;;;;;3.67;1.90;;;;;;;9.09;50.77;99600.09;10315441;28;20133;-67
2022/02/15 12:26:59;;;;;;;4.55;1.90;;;;;;;9.23;51.08;99601.88;10309635;28;20124;-67
2022/02/15 12:32:03;;;;;;;4.65;1.80;;;;;;;8.96;51.71;99600.88;10321842;28;20064;-66
2022/02/15 12:37:05;;;;;;;3.03;1.65;;;;;;;8.29;52.22;99607.34;10327204;28;20053;-67
2022/02/15 12:42:16;;;;;;;3.15;1.38;;;;;;;8.23;51.96;99619.88;10349111;28;20490;-66
2022/02/15 12:47:18;;;;;;;3.60;1.63;;;;;;;8.17;53.21;99600.22;10349038;28;20058;-67
2022/02/15 12:52:26;;;;;;;2.28;1.27;;;;;;;8.60;52.11;99588.22;10310543;28;20060;-66
2022/02/15 12:57:28;;;;;;;2.08;1.20;;;;;;;8.73;51.36;99576.16;10347848;28;20046;-66
2022/02/15 13:02:33;;;;;;;2.95;1.30;;;;;;;8.73;51.07;99558.75;10318307;28;20056;-66
2022/02/15 13:07:45;;;;;;;4.93;1.50;;;;;;;8.91;50.87;99548.19;10307174;28;20056;-67
2022/02/15 13:12:46;;;;;;;5.05;1.50;;;;;;;8.97;51.25;99551.28;10319657;28;20152;-67
2022/02/15 13:17:53;;;;;;;4.68;1.50;;;;;;;8.73;50.41;99545.72;10306859;28;20136;-67
2022/02/15 13:23:06;;;;;;;4.03;1.63;;;;;;;8.84;49.76;99550.31;10313116;28;20124;-67
2022/02/15 13:28:09;;;;;;;2.88;1.20;;;;;;;8.56;49.29;99552.84;10311844;28;20499;-66
2022/02/15 13:33:13;;;;;;;4.80;1.30;;;;;;;8.54;49.38;99554.69;10343083;28;20647;-67
2022/02/15 13:38:17;;;;;;;3.80;1.30;;;;;;;8.62;48.60;99550.72;10347344;28;20046;-67
2022/02/15 13:43:23;;;;;;;3.40;1.40;;;;;;;8.85;48.57;99547.59;10329977;28;20484;-67
2022/02/15 13:48:27;;;;;;;2.40;1.30;;;;;;;8.64;48.96;99530.63;10327097;28;20137;-66
2022/02/15 13:53:30;;;;;;;3.22;1.40;;;;;;;8.34;49.40;99544.56;10310998;28;20073;-67
2022/02/15 13:58:32;;;;;;;9.27;4.85;;;;;;;8.17;49.90;99544.66;10343876;28;20396;-67
2022/02/15 14:03:34;;;;;;;5.60;2.92;;;;;;;7.96;50.24;99536.25;10326758;28;20058;-67
2022/02/15 14:08:38;;;;;;;4.80;1.90;;;;;;;7.89;50.21;99540.97;10305932;28;20129;-67
2022/02/15 14:13:40;;;;;;;2.75;1.30;;;;;;;7.77;49.50;99549.41;10305573;28;20125;-67
2022/02/15 14:18:42;;;;;;;3.05;1.45;;;;;;;8.11;48.79;99545.84;10305376;28;20157;-67
2022/02/15 14:23:44;;;;;;;2.60;1.10;;;;;;;8.54;47.31;99534.69;10305501;28;20072;-67
2022/02/15 14:28:46;;;;;;;1.80;1.08;;;;;;;8.73;47.41;99539.66;10304656;28;20042;-67
2022/02/15 14:33:48;;;;;;;2.47;1.20;;;;;;;8.85;46.99;99544.19;10306937;28;20053;-67
2022/02/15 14:38:49;;;;;;;5.43;1.50;;;;;;;8.82;46.40;99544.34;10327451;28;20068;-67
2022/02/15 14:43:51;;;;;;;3.08;1.25;;;;;;;8.64;46.08;99535.84;10311898;28;20110;-68
2022/02/15 14:48:53;;;;;;;3.22;1.30;;;;;;;8.84;45.76;99539.88;10310172;28;20057;-67
2022/02/15 14:53:55;;;;;;;4.22;1.60;;;;;;;8.89;45.77;99534.41;10313954;28;20054;-67
2022/02/15 14:58:57;;;;;;;3.67;1.23;;;;;;;8.89;45.17;99535.25;10315138;28;20049;-67
2022/02/15 15:03:59;;;;;;;3.22;1.10;;;;;;;8.76;44.25;99536.88;10319668;28;20161;-66
2022/02/15 15:09:01;;;;;;;5.07;1.30;;;;;;;8.82;44.31;99539.97;10304632;28;20046;-67
2022/02/15 15:14:05;;;;;;;4.30;1.27;;;;;;;8.66;44.07;99540.94;10330827;28;20558;-67
2022/02/15 15:19:07;;;;;;;4.53;1.20;;;;;;;8.69;44.03;99533.78;10312762;28;20058;-66
2022/02/15 15:24:12;;;;;;;2.72;1.20;;;;;;;8.65;43.27;99532.28;10324256;28;20081;-66
2022/02/15 15:29:14;;;;;;;2.88;1.20;;;;;;;8.44;43.58;99517.06;10312615;28;20090;-66
2022/02/15 15:34:18;;;;;;;3.63;1.20;;;;;;;8.35;43.73;99520.19;10336057;28;20049;-66
2022/02/15 15:39:20;;;;;;;3.28;1.40;;;;;;;8.35;43.71;99521.03;10342478;28;20092;-66
2022/02/15 15:44:22;;;;;;;3.80;1.40;;;;;;;8.17;43.52;99529.03;10341000;28;20060;-66
2022/02/15 15:49:24;;;;;;;3.33;1.08;;;;;;;8.04;43.37;99531.44;10319748;28;20735;-66
2022/02/15 15:54:26;;;;;;;4.25;1.38;;;;;;;7.98;43.32;99522.22;10310647;28;20057;-66
2022/02/15 15:59:28;;;;;;;8.95;1.75;;;;;;;7.93;43.54;99518.19;10316848;28;20054;-66
2022/02/15 16:04:33;;;;;;;3.75;1.67;;;;;;;7.77;44.01;99525.19;10319463;28;20535;-66
2022/02/15 16:09:35;;;;;;;4.70;1.70;;;;;;;7.58;44.17;99524.47;10309410;28;20514;-66
2022/02/15 16:14:36;;;;;;;3.97;1.80;;;;;;;7.49;44.69;99514.59;10318181;28;20060;-66
2022/02/15 16:19:38;;;;;;;4.57;1.60;;;;;;;7.41;44.55;99514.97;10311133;28;20054;-66
2022/02/15 16:24:41;;;;;;;3.25;1.45;;;;;;;7.12;44.77;99516.50;10310865;28;20286;-66
2022/02/15 16:29:43;;;;;;;2.85;1.30;;;;;;;6.89;44.42;99505.63;10317266;28;20542;-66
2022/02/15 16:34:47;;;;;;;6.80;2.30;;;;;;;6.81;44.79;99500.00;10320045;28;20057;-65
2022/02/15 16:39:49;;;;;;;4.13;1.40;;;;;;;6.75;44.99;99485.56;10309661;28;20068;-64
2022/02/15 16:44:50;;;;;;;5.53;2.80;;;;;;;6.74;45.25;99486.47;10310198;28;20562;-65
2022/02/15 16:49:52;;;;;;;4.05;1.60;;;;;;;6.66;45.71;99475.63;10313666;28;20046;-64
2022/02/15 16:54:54;;;;;;;5.75;1.40;;;;;;;6.52;45.85;99482.44;10319619;28;20543;-63
2022/02/15 16:59:56;;;;;;;8.48;1.88;;;;;;;6.49;46.46;99503.38;10316644;28;20045;-64
2022/02/15 17:05:01;;;;;;;4.10;1.65;;;;;;;6.43;46.88;99496.72;10315605;28;20096;-64
2022/02/15 17:10:03;;;;;;;4.65;1.50;;;;;;;6.41;47.28;99489.94;10334991;28;20240;-63
2022/02/15 17:15:06;;;;;;;4.57;1.50;;;;;;;6.26;47.94;99486.34;10328416;28;21269;-63
2022/02/15 17:20:09;;;;;;;4.15;1.33;;;;;;;6.12;47.90;99486.94;10307664;28;20057;-64
2022/02/15 17:25:13;;;;;;;8.55;2.33;;;;;;;6.05;47.81;99503.75;10313980;28;20144;-64
2022/02/15 17:30:15;;;;;;;8.70;2.10;;;;;;;5.95;48.34;99497.31;10318043;28;20260;-64
2022/02/15 17:35:17;;;;;;;4.70;1.83;;;;;;;5.94;48.06;99498.22;10318883;28;20217;-66
2022/02/15 17:40:19;;;;;;;9.10;1.75;;;;;;;5.88;48.27;99505.50;10320921;28;20042;-71
2022/02/15 17:45:22;;;;;;;5.22;1.60;;;;;;;5.85;48.66;99492.63;10309815;28;20052;-72
2022/02/15 17:50:24;;;;;;;5.68;1.83;;;;;;;5.79;49.19;99500.72;10314835;28;20050;-71
2022/02/15 17:55:26;;;;;;;8.18;1.75;;;;;;;5.72;49.68;99489.78;10313065;28;20457;-72
2022/02/15 18:00:35;;;;;;;8.20;1.80;;;;;;;5.78;49.34;99486.91;10310335;28;20050;-72
2022/02/15 18:05:36;;;;;;;6.18;1.95;;;;;;;5.74;49.40;99492.31;10319678;28;20085;-72
2022/02/15 18:10:38;;;;;;;10.63;1.70;;;;;;;5.68;49.72;99502.97;10313617;28;20525;-71
2022/02/15 18:15:41;;;;;;;6.82;1.75;;;;;;;5.69;49.75;99491.69;10319065;28;20050;-72
2022/02/15 18:20:46;;;;;;;5.40;1.77;;;;;;;5.72;49.79;99484.59;10323648;28;20165;-72
2022/02/15 18:25:48;;;;;;;4.68;1.67;;;;;;;5.78;50.18;99489.50;10319084;28;20058;-72
2022/02/15 18:30:49;;;;;;;6.45;2.95;;;;;;;5.84;49.99;99484.00;10308786;28;20529;-71
2022/02/15 18:35:52;;;;;;;7.85;2.17;;;;;;;5.85;50.13;99477.91;10302010;28;20046;-71
2022/02/15 18:40:54;;;;;;;7.70;1.73;;;;;;;5.82;50.14;99472.03;10322057;28;20060;-71
2022/02/15 18:45:56;;;;;;;6.85;1.90;;;;;;;5.91;50.31;99484.56;10314188;28;20053;-72
2022/02/15 18:51:02;;;;;;;6.95;1.85;;;;;;;5.93;50.31;99467.16;10324691;28;20054;-72
2022/02/15 18:56:05;;;;;;;7.13;1.70;;;;;;;5.98;50.49;99449.63;10315593;28;20042;-71
2022/02/15 19:01:07;;;;;;;6.47;1.80;;;;;;;5.93;50.38;99465.41;10334482;28;20089;-72
2022/02/15 19:06:09;;;;;;;5.68;2.08;;;;;;;6.03;50.77;99448.47;10325387;28;20045;-71
2022/02/15 19:11:12;;;;;;;7.72;2.03;;;;;;;6.02;50.66;99445.97;10321058;28;20133;-72
2022/02/15 19:16:15;;;;;;;6.63;2.88;;;;;;;6.09;50.77;99437.78;10322513;28;20486;-72
2022/02/15 19:21:16;;;;;;;8.90;3.85;;;;;;;6.09;50.88;99440.38;10330526;28;20085;-72
2022/02/15 19:26:19;;;;;;;15.38;6.18;;;;;;;6.04;50.92;99437.16;10332556;28;20043;-71
2022/02/15 19:31:21;;;;;;;6.63;1.80;;;;;;;6.14;51.19;99435.78;10331507;28;20054;-71
2022/02/15 19:36:23;;;;;;;9.30;2.00;;;;;;;6.13;51.32;99441.91;10326165;28;20223;-72
2022/02/15 19:41:28;;;;;;;6.38;2.80;;;;;;;6.19;51.33;99449.41;10329450;28;20053;-72
2022/02/15 19:46:32;;;;;;;8.95;2.25;;;;;;;6.15;51.42;99434.91;10316285;28;20137;-71
2022/02/15 19:51:33;;;;;;;7.85;2.05;;;;;;;6.29;51.50;99419.50;10327629;28;20060;-71
2022/02/15 19:56:38;;;;;;;6.90;1.80;;;;;;;6.35;51.44;99418.34;10334412;28;20043;-71
2022/02/15 20:01:41;;;;;;;9.23;4.72;;;;;;;6.37;52.01;99420.88;10325629;28;20050;-71
2022/02/15 20:06:43;;;;;;;9.88;3.65;;;;;;;6.27;52.22;99418.72;10328406;28;20128;-72
2022/02/15 20:11:45;;;;;;;10.90;2.10;;;;;;;6.41;52.01;99432.78;10316473;28;20422;-72
2022/02/15 20:16:50;;;;;;;6.75;1.90;;;;;;;6.55;52.18;99425.13;10329612;28;20042;-72
2022/02/15 20:21:52;;;;;;;7.80;1.95;;;;;;;6.67;51.91;99417.56;10322117;28;20141;-71
2022/02/15 20:26:53;;;;;;;9.10;2.13;;;;;;;6.71;52.24;99426.03;10322696;28;20129;-71
2022/02/15 20:31:55;;;;;;;4.70;1.85;;;;;;;6.77;52.23;99417.91;10301318;28;20410;-71
2022/02/15 20:37:00;;;;;;;5.25;1.85;;;;;;;6.83;52.36;99409.78;10315550;28;20042;-72
2022/02/15 20:42:02;;;;;;;6.32;2.10;;;;;;;6.89;52.34;99405.09;10318022;28;20142;-72
2022/02/15 20:47:04;;;;;;;7.63;1.70;;;;;;;6.82;52.44;99387.28;10311251;28;20056;-72
2022/02/15 20:52:09;;;;;;;8.00;1.80;;;;;;;6.81;52.77;99385.63;10318472;28;20056;-72
2022/02/15 20:57:11;;;;;;;6.85;2.00;;;;;;;6.93;52.73;99371.97;10311158;28;20136;-72
2022/02/15 21:02:15;;;;;;;10.55;2.10;;;;;;;6.89;52.70;99371.31;10313300;28;20054;-72
2022/02/15 21:07:18;;;;;;;9.38;2.15;;;;;;;6.83;52.82;99378.59;10313666;28;20514;-72
2022/02/15 21:12:20;;;;;;;9.23;2.55;;;;;;;6.93;52.70;99365.03;10313096;28;20053;-73
2022/02/15 21:17:22;;;;;;;6.70;1.80;;;;;;;7.01;52.64;99362.00;10309201;28;20402;-73
2022/02/15 21:22:25;;;;;;;9.85;2.22;;;;;;;7.09;52.67;99360.69;10319109;28;20042;-73
2022/02/15 21:27:29;;;;;;;6.88;1.70;;;;;;;7.00;53.03;99349.91;10325527;28;20055;-73
2022/02/15 21:32:31;;;;;;;7.82;1.85;;;;;;;7.05;53.02;99350.53;10307866;28;20459;-72
2022/02/15 21:37:37;;;;;;;5.75;1.88;;;;;;;6.99;53.45;99341.31;10306048;28;20057;-72
2022/02/15 21:42:39;;;;;;;7.43;1.90;;;;;;;6.95;53.77;99346.75;10305044;28;20064;-72
2022/02/15 21:47:41;;;;;;;8.30;2.10;;;;;;;6.93;53.98;99343.38;10315013;28;20050;-72
2022/02/15 21:52:50;;;;;;;5.70;1.90;;;;;;;7.00;53.92;99327.38;10314677;28;20054;-71
2022/02/15 21:57:52;;;;;;;7.50;1.80;;;;;;;7.04;54.13;99315.88;10305210;28;20429;-71
2022/02/15 22:02:54;;;;;;;7.80;2.13;;;;;;;7.07;54.05;99297.53;10315178;28;20054;-71
2022/02/15 22:07:55;;;;;;;6.40;1.90;;;;;;;7.11;54.14;99293.81;10305739;28;20049;-70
2022/02/15 22:12:58;;;;;;;6.25;2.10;;;;;;;7.11;54.25;99295.59;10308581;28;20129;-71
2022/02/15 22:18:01;;;;;;;6.60;1.90;;;;;;;7.07;54.41;99287.13;10304634;28;20463;-71
2022/02/15 22:23:03;;;;;;;8.25;2.20;;;;;;;7.05;54.76;99269.91;10304687;28;20681;-71
2022/02/15 22:28:05;;;;;;;8.85;2.13;;;;;;;7.09;54.72;99268.81;10315333;28;20520;-71
2022/02/15 22:33:06;;;;;;;7.75;2.15;;;;;;;7.16;54.77;99272.78;10317847;28;20060;-71
2022/02/15 22:38:09;;;;;;;7.07;1.98;;;;;;;7.07;55.09;99257.69;10305273;28;20053;-71
2022/02/15 22:43:11;;;;;;;5.75;2.17;;;;;;;7.01;55.63;99252.81;10305518;28;20057;-71
2022/02/15 22:48:13;;;;;;;7.40;2.20;;;;;;;7.06;55.70;99248.22;10339013;28;20313;-71
2022/02/15 22:53:15;;;;;;;6.63;2.35;;;;;;;7.00;55.96;99245.94;10330697;28;20133;-70
2022/02/15 22:58:17;;;;;;;5.38;1.90;;;;;;;7.02;56.11;99233.72;10316726;28;20185;-71
2022/02/15 23:03:23;;;;;;;9.48;2.58;;;;;;;7.05;56.05;99225.72;10315318;28;20506;-72
2022/02/15 23:19:06;;;;;;;8.80;2.83;;;;;;;7.13;56.20;99221.78;10311578;28;20550;-71
2022/02/15 23:24:08;;;;;;;7.32;2.80;;;;;;;7.07;56.49;99205.69;10312635;28;20254;-70
2022/02/15 23:29:10;;;;;;;6.40;2.53;;;;;;;7.04;56.69;99206.69;10310628;28;20068;-70
2022/02/15 23:34:12;;;;;;;5.85;2.50;;;;;;;7.09;56.88;99191.66;10317758;28;20475;-70
2022/02/15 23:39:14;;;;;;;5.68;2.30;;;;;;;7.14;57.37;99194.00;10311171;28;20153;-71
2022/02/15 23:44:18;;;;;;;6.57;2.88;;;;;;;7.18;57.96;99192.91;10316199;28;20424;-70
2022/02/15 23:49:21;;;;;;;4.55;2.40;;;;;;;7.07;58.39;99190.06;10317916;28;20540;-70
2022/02/15 23:54:23;;;;;;;7.47;2.25;;;;;;;7.02;58.75;99177.34;10310514;28;20108;-70
2022/02/15 23:59:24;;;;;;;7.55;3.03;;;;;;;6.94;58.94;99176.94;10318678;28;20057;-70
